Underwood, IA (51576)

4:58 PM CDT on August 21, 2014 (GMT -0500)
Treynor IA | Change Station
CLOSE
Current Station
Personal Weather Station
Location: Treynor, IA
Elevation: 1214 ft
Nearby Weather Stations

Elev 1214 ft 41.23 °N, 95.61 °W | Updated 6 minutes ago

Scattered Clouds
Scattered Clouds
96.8 °F
Feels Like 112 °F
N
4.7
Wind Variable Wind from SW

Today
High -- | Low -- °F
--% Chance of Precip.
Yesterday
High -- | Low -- °F
Precip. -- in
6:38 AM 8:13 PM
Waning Crescent, 12% visible
Pressure 29.79 in
Visibility 10.0 miles
Clouds Few 13000 ft
Scattered Clouds 16000 ft
Scattered Clouds 25000 ft
Heat Index 112 °F
Dew Point 77 °F
Humidity 53%
Rainfall 0.02 in
Snow Depth Not available.
UV 4 out of 12
Pollen 8.00 out of 12
Ozone Good
PM2.5 Moderate
Flu Activity Not available.
METAR KOMA 212152Z 21007KT 10SM FEW130 SCT160 SCT250 33/21 A2983 RMK AO2 SLP088 T03330211

More Conditions Fewer Conditions

Pressure 29.79 in
Visibility 10.0 miles
Clouds Few 13000 ft
Scattered Clouds 16000 ft
Scattered Clouds 25000 ft
Heat Index 112 °F
Dew Point 77 °F
Humidity 53%
Rainfall 0.02 in
Snow Depth Not available.
UV 4 out of 12
Pollen 8.00 out of 12
Ozone Good
PM2.5 Moderate
Flu Activity Not available.
METAR KOMA 212152Z 21007KT 10SM FEW130 SCT160 SCT250 33/21 A2983 RMK AO2 SLP088 T03330211

More Conditions Fewer Conditions

10-Day Weather Forecast

Almanac

Astronomy

Aug. 21, 2014 Rise Set
Actual Time 6:38 AM CDT 8:13 PM CDT
Civil Twilight 6:08 AM CDT 8:42 PM CDT
Nautical Twilight 5:33 AM CDT 9:17 PM CDT
Astronomical Twilight 4:56 AM CDT 9:54 PM CDT
Moon 3:08 AM CDT 5:43 PM CDT
Length of Visible Light 14h 33m
Length of Day
13h 34m
Tomorrow will be 2m 31s shorter.
Waning Crescent, 12% of the Moon is Illuminated
Today
Waning Crescent
Aug 25
New
Sep 2
First Quarter
Sep 8
Full
Sep 15
Last Quarter

Today's Extremes

State Highs State Lows

Community

WunderPhotos

Upload Photos

1,746,021 photos uploaded!

WunderBlogs® & News

Nearby

Air Quality

  Air Quality AQ Index Pollutant
Yesterday Good
PM2.5
Yesterday Good
OZONE
Current Moderate
PM2.5
Current Good
OZONE
Thursday Moderate
PM2.5
Thursday Good
OZONE
Thursday Good
CO
Friday Moderate
OZONE
Friday Moderate
PM2.5
Friday Good
CO

Snow Depth

Station Depth Elevation
No new snow has been reported.

Earthquake Activity

City Distance Mag. Time & Date
No recent earthquake activity has been reported nearby.
Minimum magnitude displayed is 2.5.

Coastal Water Temperatures

Place Temperature
No Stations Reporting

Nearby Weather Stations